Time;durP1;ratioP1;P1;durP2;ratioP2;P2;SDS_P1;SDS_P2;PMS_P1;PMS_P2;Temp;Humidity;BMP_temperature;BMP_pressure;BME280_temperature;BME280_humidity;BME280_pressure;Samples;Min_cycle;Max_cycle;Signal;HPM_P1;HPM_P2
2023/06/11 00:00:11;;;;;;;7.73;5.03;;;19.70;99.90;;;;;;12421981;28;20076;-39
2023/06/11 00:06:17;;;;;;;8.50;4.97;;;19.30;99.90;;;;;;12384028;28;20064;-39
2023/06/11 00:12:19;;;;;;;7.47;4.80;;;19.00;99.90;;;;;;12424253;28;20065;-38
2023/06/11 00:18:22;;;;;;;5.70;4.68;;;19.00;99.90;;;;;;12417862;28;20054;-38
2023/06/11 00:24:23;;;;;;;7.15;4.60;;;18.90;99.90;;;;;;12421119;28;20038;-38
2023/06/11 00:30:25;;;;;;;7.25;4.50;;;19.00;99.90;;;;;;12414153;28;20058;-38
2023/06/11 00:36:27;;;;;;;8.73;4.60;;;18.90;99.90;;;;;;12422863;28;20111;-38
2023/06/11 00:42:30;;;;;;;6.18;4.60;;;18.90;99.90;;;;;;12425255;28;20089;-38
2023/06/11 00:48:32;;;;;;;6.35;4.57;;;19.00;99.90;;;;;;12428171;28;20046;-38
2023/06/11 00:54:34;;;;;;;7.28;4.72;;;19.20;99.90;;;;;;12413681;28;20046;-38
2023/06/11 01:00:38;;;;;;;6.38;4.57;;;19.30;99.90;;;;;;12426051;28;20050;-39
2023/06/11 01:06:46;;;;;;;10.73;4.47;;;19.40;99.90;;;;;;12413108;28;20053;-38
2023/06/11 01:12:48;;;;;;;9.50;4.75;;;19.30;99.90;;;;;;12412847;28;20434;-38
2023/06/11 01:19:03;;;;;;;6.50;5.10;;;19.20;99.90;;;;;;12425204;28;20054;-38
2023/06/11 01:25:37;;;;;;;7.00;4.68;;;19.20;99.90;;;;;;12423749;28;20049;-38
2023/06/11 01:31:40;;;;;;;6.67;5.13;;;19.10;99.90;;;;;;12428455;28;20064;-38
2023/06/11 01:37:45;;;;;;;7.13;5.15;;;19.10;99.90;;;;;;12421164;28;20050;-38
2023/06/11 01:43:47;;;;;;;6.90;4.88;;;19.10;99.90;;;;;;12427625;28;20507;-38
2023/06/11 01:49:49;;;;;;;7.32;5.05;;;19.00;99.90;;;;;;12410261;28;21023;-38
2023/06/11 01:55:51;;;;;;;5.97;4.35;;;19.00;99.90;;;;;;12423437;28;20453;-38
2023/06/11 02:01:53;;;;;;;6.55;4.70;;;19.00;99.90;;;;;;12428322;28;20053;-38
2023/06/11 02:07:55;;;;;;;10.30;5.47;;;18.70;99.90;;;;;;12422456;28;20141;-38
2023/06/11 02:13:57;;;;;;;5.93;4.70;;;18.60;99.90;;;;;;12411905;28;20049;-39
2023/06/11 02:19:59;;;;;;;9.07;5.47;;;18.50;99.90;;;;;;12427025;28;20088;-39
2023/06/11 02:26:01;;;;;;;7.97;5.05;;;18.50;99.90;;;;;;12431054;28;20082;-39
2023/06/11 02:32:04;;;;;;;6.15;4.68;;;18.80;99.90;;;;;;12418542;28;20049;-39
2023/06/11 02:38:06;;;;;;;9.27;5.68;;;19.20;99.90;;;;;;12429886;28;20150;-38
2023/06/11 02:44:08;;;;;;;7.93;5.63;;;19.20;99.90;;;;;;12422856;28;20077;-38
2023/06/11 02:50:10;;;;;;;9.02;5.70;;;18.90;99.90;;;;;;12420520;28;20058;-37
2023/06/11 02:56:12;;;;;;;6.85;5.68;;;18.90;99.90;;;;;;12430602;28;20140;-38
2023/06/11 03:02:14;;;;;;;6.05;4.88;;;18.90;99.90;;;;;;12426409;28;20042;-38
2023/06/11 03:08:16;;;;;;;10.65;5.53;;;18.80;99.90;;;;;;12427043;28;20510;-38
2023/06/11 03:14:20;;;;;;;8.70;4.97;;;18.80;99.90;;;;;;12426986;28;20045;-38
2023/06/11 03:20:23;;;;;;;7.75;5.80;;;18.60;99.90;;;;;;12427261;28;20053;-38
2023/06/11 03:26:25;;;;;;;10.32;6.03;;;18.60;99.90;;;;;;12424571;28;20144;-38
2023/06/11 03:32:27;;;;;;;8.02;5.65;;;18.50;99.90;;;;;;12419828;28;20049;-39
2023/06/11 03:38:29;;;;;;;6.97;5.15;;;18.40;99.90;;;;;;12419496;28;20043;-38
2023/06/11 03:44:31;;;;;;;7.40;5.70;;;18.40;99.90;;;;;;12425230;28;20076;-38
2023/06/11 03:50:33;;;;;;;7.63;5.45;;;18.30;99.90;;;;;;12424126;28;20145;-38
2023/06/11 03:56:35;;;;;;;5.63;4.95;;;18.30;99.90;;;;;;12426524;28;20103;-38
2023/06/11 04:02:37;;;;;;;10.52;5.20;;;18.40;99.90;;;;;;12418463;28;20410;-39
2023/06/11 04:08:39;;;;;;;9.82;5.95;;;18.40;99.90;;;;;;12420373;28;20137;-38
2023/06/11 04:14:40;;;;;;;7.55;5.50;;;18.70;99.90;;;;;;12423541;28;20050;-38
2023/06/11 04:20:43;;;;;;;6.57;4.95;;;19.40;99.90;;;;;;12416891;28;20053;-38
2023/06/11 04:26:47;;;;;;;6.82;5.07;;;19.50;99.90;;;;;;12425339;28;20074;-38
2023/06/11 04:32:54;;;;;;;8.20;5.55;;;20.10;99.90;;;;;;12428874;28;20050;-38
2023/06/11 04:39:01;;;;;;;7.75;5.60;;;20.80;99.90;;;;;;12418914;28;20490;-38
2023/06/11 04:45:04;;;;;;;7.28;5.40;;;21.20;99.90;;;;;;12422981;28;20117;-38
2023/06/11 04:51:06;;;;;;;7.80;5.27;;;20.80;99.90;;;;;;12420680;28;21246;-38
2023/06/11 04:57:08;;;;;;;6.38;4.80;;;20.90;99.90;;;;;;12421683;28;20050;-38
2023/06/11 05:03:12;;;;;;;8.60;5.72;;;20.70;99.90;;;;;;12418372;28;20139;-38
2023/06/11 05:09:14;;;;;;;;;;;20.60;99.90;;;;;;12427722;28;20057;-38
2023/06/11 05:15:16;;;;;;;6.88;5.20;;;20.40;99.90;;;;;;12406873;28;19925;-38
2023/06/11 05:21:18;;;;;;;6.95;5.65;;;20.10;99.90;;;;;;12419536;28;20049;-38
2023/06/11 05:27:23;;;;;;;10.10;6.30;;;20.00;99.90;;;;;;12421469;28;20054;-38
2023/06/11 05:33:26;;;;;;;9.10;6.65;;;19.80;99.90;;;;;;12421322;28;20092;-39
2023/06/11 05:39:28;;;;;;;8.13;5.93;;;19.70;99.90;;;;;;12414763;28;20042;-39
2023/06/11 05:45:33;;;;;;;8.38;5.82;;;19.90;99.90;;;;;;12415574;28;20046;-38
2023/06/11 05:51:35;;;;;;;8.50;5.95;;;19.90;99.90;;;;;;12420083;28;20483;-38
2023/06/11 05:57:37;;;;;;;8.70;5.45;;;19.90;99.90;;;;;;12420496;28;20057;-38
2023/06/11 06:03:39;;;;;;;10.30;6.25;;;20.00;99.90;;;;;;12422069;28;20045;-38
2023/06/11 06:09:42;;;;;;;10.05;5.88;;;19.90;99.90;;;;;;12417752;28;20055;-40
2023/06/11 06:15:44;;;;;;;6.53;5.03;;;19.90;99.90;;;;;;12424857;28;20042;-39
2023/06/11 06:21:46;;;;;;;12.38;5.75;;;20.10;99.90;;;;;;12429931;28;20058;-37
2023/06/11 06:27:48;;;;;;;8.45;5.43;;;20.40;99.90;;;;;;12422836;28;20065;-40
2023/06/11 06:33:50;;;;;;;10.43;5.28;;;20.70;99.90;;;;;;12413496;28;20680;-39
2023/06/11 06:39:52;;;;;;;6.45;4.82;;;21.10;99.90;;;;;;12411251;28;20046;-39
2023/06/11 06:45:54;;;;;;;8.25;5.32;;;21.50;99.90;;;;;;12409561;28;20549;-39
2023/06/11 06:51:56;;;;;;;8.40;5.30;;;21.50;99.90;;;;;;12399144;28;20082;-38
2023/06/11 06:57:58;;;;;;;7.57;5.10;;;21.90;99.90;;;;;;12430132;28;20069;-39
2023/06/11 07:04:00;;;;;;;7.28;5.40;;;22.00;99.90;;;;;;12409619;28;20050;-40
2023/06/11 07:10:02;;;;;;;6.72;5.28;;;22.00;99.90;;;;;;12402872;28;20050;-39
2023/06/11 07:16:05;;;;;;;7.60;5.88;;;22.20;99.90;;;;;;12441008;28;20057;-39
2023/06/11 07:22:07;;;;;;;8.32;5.47;;;22.20;99.90;;;;;;12404545;28;20038;-38
2023/06/11 07:28:09;;;;;;;9.38;5.90;;;22.30;99.90;;;;;;12401778;28;20065;-39
2023/06/11 07:34:15;;;;;;;7.55;5.50;;;22.30;99.90;;;;;;12414728;28;20058;-39
2023/06/11 07:40:17;;;;;;;8.60;6.00;;;22.40;99.90;;;;;;12408644;28;20413;-39
2023/06/11 07:46:19;;;;;;;11.02;5.65;;;22.40;99.90;;;;;;12402607;28;20383;-39
2023/06/11 07:52:21;;;;;;;10.32;6.53;;;22.60;99.90;;;;;;12415613;28;20483;-40
2023/06/11 07:58:23;;;;;;;10.60;6.10;;;22.70;99.90;;;;;;12414618;28;20065;-38
2023/06/11 08:04:25;;;;;;;8.35;5.82;;;22.80;99.90;;;;;;12400619;28;20395;-38
2023/06/11 08:10:27;;;;;;;10.98;6.38;;;23.10;99.90;;;;;;12404977;28;20053;-40
2023/06/11 08:16:29;;;;;;;8.50;5.80;;;23.20;99.90;;;;;;12399761;28;20053;-39
2023/06/11 08:22:31;;;;;;;8.27;5.70;;;23.40;99.90;;;;;;12398146;28;20418;-40
2023/06/11 08:28:35;;;;;;;10.13;5.88;;;23.50;99.90;;;;;;12390129;28;20066;-39
2023/06/11 08:34:37;;;;;;;9.02;6.53;;;23.60;99.90;;;;;;12403491;28;20045;-39
2023/06/11 08:40:41;;;;;;;8.52;5.38;;;23.90;99.90;;;;;;12410681;28;20688;-40
2023/06/11 08:46:44;;;;;;;8.35;6.00;;;24.00;99.90;;;;;;12405054;28;20046;-39
2023/06/11 08:52:53;;;;;;;7.43;5.07;;;24.10;99.90;;;;;;12414572;28;20050;-40
2023/06/11 08:58:56;;;;;;;8.75;5.40;;;24.10;99.90;;;;;;12414071;28;20494;-39
2023/06/11 09:04:58;;;;;;;9.77;5.28;;;24.30;99.90;;;;;;12408488;28;20049;-40
2023/06/11 09:11:00;;;;;;;8.45;5.60;;;24.70;99.90;;;;;;12395537;28;20122;-39
2023/06/11 09:17:02;;;;;;;9.40;5.53;;;25.10;99.90;;;;;;12395931;28;20093;-39
2023/06/11 09:23:04;;;;;;;7.23;4.80;;;25.10;99.90;;;;;;12429684;28;20206;-39
2023/06/11 09:29:06;;;;;;;7.75;4.85;;;25.10;99.90;;;;;;12385200;28;20538;-40
2023/06/11 09:35:09;;;;;;;7.90;5.60;;;25.50;99.90;;;;;;12401046;28;20054;-40
2023/06/11 09:41:12;;;;;;;9.63;5.10;;;25.80;99.90;;;;;;12405840;28;20054;-39
2023/06/11 09:47:15;;;;;;;10.40;4.57;;;25.80;99.90;;;;;;12398588;28;20061;-40
2023/06/11 09:53:22;;;;;;;;;;;25.90;99.90;;;;;;12417319;28;20545;-40
2023/06/11 09:59:25;;;;;;;11.55;4.90;;;26.50;99.90;;;;;;12406535;28;20048;-39
2023/06/11 10:05:27;;;;;;;;;;;27.00;99.90;;;;;;12416498;28;20058;-39
2023/06/11 10:11:38;;;;;;;7.10;4.63;;;26.70;99.90;;;;;;12422410;28;19921;-40
2023/06/11 10:17:51;;;;;;;7.95;4.05;;;26.90;99.90;;;;;;12404513;28;20041;-40
2023/06/11 10:23:53;;;;;;;8.48;4.50;;;27.40;99.90;;;;;;12425337;28;20078;-40
2023/06/11 10:29:55;;;;;;;8.07;4.60;;;26.70;99.90;;;;;;12420966;28;20060;-39
2023/06/11 10:36:01;;;;;;;11.17;4.43;;;27.10;99.90;;;;;;12425416;28;20065;-40
2023/06/11 10:42:05;;;;;;;8.88;4.35;;;27.10;99.90;;;;;;12392673;28;20061;-40
2023/06/11 10:48:07;;;;;;;8.50;3.80;;;27.90;99.90;;;;;;12395522;28;20054;-40
2023/06/11 10:54:09;;;;;;;6.75;3.60;;;27.20;99.90;;;;;;12397066;28;20415;-39
2023/06/11 11:00:12;;;;;;;6.70;3.60;;;27.40;99.90;;;;;;12395255;28;20708;-40
2023/06/11 11:06:25;;;;;;;9.00;3.83;;;27.50;99.90;;;;;;12399149;28;20061;-40
2023/06/11 11:12:33;;;;;;;;;;;28.20;99.90;;;;;;12385791;28;20049;-40
2023/06/11 11:18:35;;;;;;;6.22;4.10;;;27.10;99.90;;;;;;12414827;28;19967;-40
2023/06/11 11:24:37;;;;;;;5.97;3.67;;;27.20;99.90;;;;;;12405767;28;20047;-40
2023/06/11 11:30:41;;;;;;;7.38;4.38;;;28.10;99.90;;;;;;12402561;28;20054;-40
2023/06/11 11:36:46;;;;;;;6.67;4.13;;;27.50;99.90;;;;;;12414832;28;20038;-41
2023/06/11 11:42:54;;;;;;;6.65;4.28;;;28.40;99.90;;;;;;12403268;28;20173;-40
2023/06/11 11:48:56;;;;;;;6.53;3.58;;;28.60;99.90;;;;;;12386711;28;20057;-40
2023/06/11 11:54:58;;;;;;;9.18;3.88;;;27.90;99.90;;;;;;12399641;28;20046;-41
2023/06/11 12:01:01;;;;;;;7.32;4.10;;;27.90;99.90;;;;;;12398769;28;20050;-40
2023/06/11 12:07:06;;;;;;;;;;;27.50;99.90;;;;;;12405919;28;20050;-40
2023/06/11 12:13:08;;;;;;;7.00;3.92;;;27.70;99.90;;;;;;12398002;28;20688;-40
2023/06/11 12:19:10;;;;;;;9.57;3.70;;;27.70;99.90;;;;;;12414318;28;20056;-42
2023/06/11 12:25:25;;;;;;;8.30;3.78;;;28.20;99.90;;;;;;12414392;28;20137;-40
2023/06/11 12:31:27;;;;;;;8.68;3.95;;;27.30;99.90;;;;;;12393456;28;20144;-40
2023/06/11 12:37:31;;;;;;;6.22;4.10;;;28.10;99.90;;;;;;12405454;28;20484;-40
2023/06/11 12:43:33;;;;;;;;;;;28.10;99.90;;;;;;12416169;28;20049;-40
2023/06/11 12:49:34;;;;;;;8.77;4.40;;;27.60;99.90;;;;;;12421221;28;19929;-40
2023/06/11 12:55:37;;;;;;;10.20;4.53;;;27.80;99.90;;;;;;12413778;28;20083;-40
2023/06/11 13:01:39;;;;;;;9.82;4.60;;;27.60;99.90;;;;;;12418786;28;20042;-40
2023/06/11 13:07:41;;;;;;;5.85;4.07;;;27.50;99.90;;;;;;12419252;28;20081;-40
2023/06/11 13:13:43;;;;;;;8.02;4.35;;;27.50;99.90;;;;;;12409495;28;20050;-39
2023/06/11 13:19:45;;;;;;;7.97;4.30;;;27.00;99.90;;;;;;12425602;28;20190;-39
2023/06/11 13:25:47;;;;;;;6.47;4.93;;;27.00;99.90;;;;;;12420149;28;20046;-39
2023/06/11 13:31:50;;;;;;;7.53;4.10;;;27.00;99.90;;;;;;12417060;28;20311;-39
2023/06/11 13:37:52;;;;;;;7.63;4.28;;;26.80;99.90;;;;;;12432903;28;20061;-39
2023/06/11 13:43:54;;;;;;;5.07;3.40;;;26.80;99.90;;;;;;12412902;28;20049;-39
2023/06/11 13:49:56;;;;;;;6.33;3.40;;;26.70;99.90;;;;;;12411653;28;20042;-39
2023/06/11 13:55:59;;;;;;;5.88;3.75;;;27.00;99.90;;;;;;12415632;28;20042;-39
2023/06/11 14:02:01;;;;;;;5.50;3.42;;;27.40;99.90;;;;;;12418006;28;20046;-39
2023/06/11 14:08:04;;;;;;;5.68;3.22;;;27.10;99.80;;;;;;12423366;28;20424;-39
2023/06/11 14:14:08;;;;;;;5.55;3.25;;;26.80;99.80;;;;;;12421038;28;20050;-39
2023/06/11 14:20:11;;;;;;;7.30;3.58;;;26.80;98.60;;;;;;12427256;28;20050;-41
2023/06/11 14:26:18;;;;;;;6.18;3.60;;;26.80;98.20;;;;;;12427033;28;20045;-39
2023/06/11 14:32:20;;;;;;;9.50;3.80;;;26.90;99.90;;;;;;12423520;28;20469;-39
2023/06/11 14:38:22;;;;;;;5.30;3.15;;;26.80;99.80;;;;;;12426334;28;20479;-40
2023/06/11 14:44:24;;;;;;;7.20;3.40;;;26.90;99.90;;;;;;12419308;28;20057;-39
2023/06/11 14:50:27;;;;;;;4.70;3.38;;;26.90;99.40;;;;;;12426113;28;20521;-39
2023/06/11 14:56:29;;;;;;;4.85;3.20;;;26.60;98.30;;;;;;12407340;28;20405;-39
2023/06/11 15:02:37;;;;;;;7.88;3.00;;;26.70;99.00;;;;;;12425970;28;20042;-39
2023/06/11 15:08:39;;;;;;;6.03;3.10;;;26.60;99.70;;;;;;12427460;28;20046;-39
2023/06/11 15:14:41;;;;;;;5.63;3.20;;;26.60;97.80;;;;;;12419373;28;20046;-39
2023/06/11 15:20:43;;;;;;;5.23;3.20;;;26.60;98.10;;;;;;12417027;28;20046;-40
2023/06/11 15:26:46;;;;;;;4.85;3.00;;;26.50;97.20;;;;;;12420010;28;20277;-40
2023/06/11 15:32:48;;;;;;;6.28;3.10;;;26.40;96.20;;;;;;12430834;28;20068;-41
2023/06/11 15:38:52;;;;;;;5.60;3.20;;;26.40;96.60;;;;;;12430675;28;20099;-38
2023/06/11 15:44:54;;;;;;;7.80;3.25;;;26.40;95.10;;;;;;12401124;28;20042;-38
2023/06/11 15:50:56;;;;;;;7.93;3.53;;;26.40;96.30;;;;;;12422677;28;20045;-38
2023/06/11 15:57:00;;;;;;;6.73;2.77;;;26.30;94.40;;;;;;12424303;28;20056;-38
2023/06/11 16:03:03;;;;;;;6.28;2.97;;;26.20;94.90;;;;;;12420706;28;20042;-38
2023/06/11 16:09:05;;;;;;;4.18;2.83;;;26.40;96.00;;;;;;12410621;28;20046;-38
2023/06/11 16:15:07;;;;;;;4.83;2.97;;;26.30;93.90;;;;;;12417585;28;20192;-39
2023/06/11 16:21:09;;;;;;;6.38;3.00;;;26.20;93.50;;;;;;12432011;28;20556;-38
2023/06/11 16:27:11;;;;;;;4.60;2.70;;;26.10;93.20;;;;;;12411026;28;20056;-38
2023/06/11 16:33:13;;;;;;;4.50;2.73;;;26.20;94.50;;;;;;12420457;28;20100;-38
2023/06/11 16:39:16;;;;;;;6.37;3.20;;;26.00;94.50;;;;;;12414810;28;20049;-38
2023/06/11 16:45:32;;;;;;;3.90;2.42;;;25.90;93.80;;;;;;12415022;28;20444;-38
2023/06/11 16:51:33;;;;;;;7.32;2.67;;;26.00;92.80;;;;;;12404107;28;20497;-40
2023/06/11 16:57:36;;;;;;;6.63;2.70;;;25.90;92.90;;;;;;12415869;28;20054;-38
2023/06/11 17:03:38;;;;;;;6.03;2.87;;;25.90;94.80;;;;;;12436918;28;20054;-39
2023/06/11 17:09:42;;;;;;;4.00;2.70;;;25.80;91.60;;;;;;12426251;28;20343;-39
2023/06/11 17:15:44;;;;;;;5.57;3.10;;;25.80;92.40;;;;;;12421232;28;20084;-39
2023/06/11 17:21:46;;;;;;;6.75;2.78;;;25.80;91.90;;;;;;12412396;28;20093;-39
2023/06/11 17:27:48;;;;;;;6.90;2.80;;;25.80;91.80;;;;;;12423566;28;20409;-38
2023/06/11 17:33:50;;;;;;;5.60;2.77;;;25.80;92.00;;;;;;12410574;28;20045;-39
2023/06/11 17:39:52;;;;;;;4.07;2.40;;;25.80;92.20;;;;;;12421554;28;20569;-39
2023/06/11 17:45:54;;;;;;;4.43;3.23;;;25.80;92.70;;;;;;12416813;28;20057;-41
2023/06/11 17:51:56;;;;;;;7.30;3.03;;;25.80;93.90;;;;;;12413811;28;20034;-40
2023/06/11 17:57:58;;;;;;;4.30;2.90;;;25.90;93.90;;;;;;12414027;28;20049;-39
2023/06/11 18:04:00;;;;;;;7.17;2.87;;;26.10;93.20;;;;;;12416530;28;20053;-39
2023/06/11 18:10:03;;;;;;;10.15;3.00;;;25.80;92.00;;;;;;12420147;28;20042;-39
2023/06/11 18:16:05;;;;;;;5.30;3.00;;;25.60;92.80;;;;;;12416084;28;20054;-39
2023/06/11 18:22:07;;;;;;;6.30;2.93;;;25.20;94.20;;;;;;12427612;28;20049;-38
2023/06/11 18:28:09;;;;;;;4.47;2.70;;;25.00;94.50;;;;;;12434966;28;20057;-38
2023/06/11 18:34:11;;;;;;;8.77;2.90;;;24.80;94.40;;;;;;12433890;28;20049;-38
2023/06/11 18:40:13;;;;;;;6.60;3.08;;;24.80;94.30;;;;;;12432047;28;20042;-38
2023/06/11 18:46:19;;;;;;;4.68;3.03;;;24.60;96.40;;;;;;12415515;28;20111;-38
2023/06/11 18:52:21;;;;;;;5.15;2.95;;;24.50;96.80;;;;;;12410193;28;20097;-38
2023/06/11 18:58:23;;;;;;;4.70;2.90;;;24.30;97.10;;;;;;12422231;28;20664;-38
2023/06/11 19:04:25;;;;;;;5.47;3.08;;;24.20;97.70;;;;;;12412052;28;20041;-39
2023/06/11 19:10:27;;;;;;;4.55;2.90;;;24.10;98.60;;;;;;12426734;28;20053;-38
2023/06/11 19:16:29;;;;;;;5.88;3.00;;;23.90;99.30;;;;;;12424534;28;20049;-39
2023/06/11 19:22:31;;;;;;;6.05;3.13;;;23.80;99.90;;;;;;12418717;28;20128;-39
2023/06/11 19:28:33;;;;;;;6.68;2.90;;;23.60;99.90;;;;;;12413328;28;20200;-38
2023/06/11 19:34:35;;;;;;;3.95;3.17;;;23.50;99.90;;;;;;12416626;28;20062;-37
2023/06/11 19:40:43;;;;;;;6.82;2.80;;;23.30;99.90;;;;;;12416702;28;20100;-39
2023/06/11 19:46:45;;;;;;;13.05;3.08;;;23.40;99.90;;;;;;12412886;28;20057;-38
2023/06/11 19:52:48;;;;;;;5.13;2.60;;;23.20;99.90;;;;;;12417778;28;20128;-38
2023/06/11 19:58:50;;;;;;;8.40;2.95;;;23.00;99.90;;;;;;12422536;28;20093;-39
2023/06/11 20:04:52;;;;;;;6.10;3.10;;;22.80;99.90;;;;;;12418688;28;20514;-38
2023/06/11 20:10:58;;;;;;;5.78;3.40;;;22.40;99.90;;;;;;12423070;28;20058;-39
2023/06/11 20:17:00;;;;;;;4.28;2.95;;;22.50;99.90;;;;;;12420205;28;20054;-39
2023/06/11 20:23:02;;;;;;;7.15;3.17;;;22.80;99.90;;;;;;12425918;28;20041;-38
2023/06/11 20:29:04;;;;;;;4.72;2.70;;;22.70;99.90;;;;;;12422179;28;20066;-38
2023/06/11 20:35:06;;;;;;;4.68;3.10;;;22.50;99.90;;;;;;12423945;28;20084;-38
2023/06/11 20:41:09;;;;;;;5.68;3.28;;;22.30;99.90;;;;;;12423683;28;20050;-38
2023/06/11 20:47:11;;;;;;;5.47;3.17;;;21.90;99.90;;;;;;12422069;28;20081;-39
2023/06/11 20:53:13;;;;;;;6.97;2.90;;;21.60;99.90;;;;;;12424589;28;20417;-38
2023/06/11 20:59:33;;;;;;;5.40;3.13;;;21.60;99.90;;;;;;12427376;28;20042;-38
2023/06/11 21:05:35;;;;;;;4.68;2.67;;;21.50;99.90;;;;;;12416690;28;20034;-38
2023/06/11 21:11:37;;;;;;;4.03;2.80;;;21.60;99.90;;;;;;12413218;28;20045;-37
2023/06/11 21:17:39;;;;;;;4.22;2.40;;;21.70;99.90;;;;;;12418918;28;20061;-38
2023/06/11 21:23:41;;;;;;;5.20;2.70;;;21.60;99.90;;;;;;12413583;28;20184;-38
2023/06/11 21:29:43;;;;;;;4.38;2.95;;;21.70;99.90;;;;;;12417852;28;20049;-38
2023/06/11 21:35:49;;;;;;;5.25;3.45;;;21.50;99.90;;;;;;12430740;28;20058;-38
2023/06/11 21:41:51;;;;;;;4.32;2.90;;;21.30;99.90;;;;;;12407801;28;20092;-38
2023/06/11 21:47:54;;;;;;;4.07;2.63;;;21.10;99.90;;;;;;12427062;28;20054;-38
2023/06/11 21:53:56;;;;;;;4.63;2.92;;;21.00;99.90;;;;;;12426375;28;20405;-38
2023/06/11 22:00:00;;;;;;;4.53;2.60;;;20.90;99.90;;;;;;12432266;28;20064;-39
2023/06/11 22:06:03;;;;;;;4.90;2.58;;;20.80;99.90;;;;;;12428310;28;20452;-38
2023/06/11 22:12:06;;;;;;;5.00;2.70;;;20.60;99.90;;;;;;12422846;28;20065;-38
2023/06/11 22:18:08;;;;;;;5.15;2.72;;;20.60;99.90;;;;;;12430655;28;20045;-37
2023/06/11 22:24:11;;;;;;;4.37;2.90;;;20.50;99.90;;;;;;12429399;28;20065;-38
2023/06/11 22:30:14;;;;;;;4.75;2.38;;;20.50;99.90;;;;;;12416417;28;20057;-38
2023/06/11 22:36:16;;;;;;;4.70;2.72;;;20.50;99.90;;;;;;12429528;28;20127;-38
2023/06/11 22:42:18;;;;;;;7.35;2.78;;;20.50;99.90;;;;;;12430871;28;20042;-38
2023/06/11 22:48:20;;;;;;;4.82;2.53;;;20.40;99.90;;;;;;12423433;28;20049;-39
2023/06/11 22:54:22;;;;;;;5.72;2.92;;;20.30;99.90;;;;;;12425006;28;20052;-38
2023/06/11 23:00:24;;;;;;;7.18;2.30;;;20.40;99.90;;;;;;12425305;28;20077;-37
2023/06/11 23:06:26;;;;;;;3.85;2.70;;;20.40;99.90;;;;;;12424649;28;20049;-37
2023/06/11 23:12:28;;;;;;;4.43;2.63;;;20.50;99.90;;;;;;12422394;28;20414;-38
2023/06/11 23:18:31;;;;;;;4.72;2.75;;;20.40;99.90;;;;;;12431929;28;20080;-38
2023/06/11 23:24:39;;;;;;;3.77;2.30;;;20.10;99.90;;;;;;12431751;28;20076;-37
2023/06/11 23:30:41;;;;;;;8.23;2.65;;;20.00;99.90;;;;;;12426693;28;20495;-37
2023/06/11 23:36:43;;;;;;;7.88;2.92;;;20.00;99.90;;;;;;12426972;28;20387;-38
2023/06/11 23:42:45;;;;;;;6.20;2.58;;;19.80;99.90;;;;;;12424605;28;20395;-39
2023/06/11 23:48:47;;;;;;;4.05;2.55;;;19.60;99.90;;;;;;12424820;28;20056;-38
2023/06/11 23:54:49;;;;;;;4.00;2.33;;;19.40;99.90;;;;;;12423894;28;20050;-38
